sensor_id;sensor_type;location;lat;lon;timestamp;P1;durP1;ratioP1;P2;durP2;ratioP2
15878;SDS011;61999;51.514;14.614;2022-07-29T05:26:13;5.70;;;1.90;;
15878;SDS011;61999;51.514;14.614;2022-07-29T05:28:41;3.47;;;1.77;;
15878;SDS011;61999;51.514;14.614;2022-07-29T05:31:09;1.70;;;1.60;;
15878;SDS011;61999;51.514;14.614;2022-07-29T05:33:37;3.03;;;2.10;;
15878;SDS011;61999;51.514;14.614;2022-07-29T05:36:05;1.90;;;1.53;;
15878;SDS011;61999;51.514;14.614;2022-07-29T05:38:33;2.50;;;1.57;;
15878;SDS011;61999;51.514;14.614;2022-07-29T05:41:02;1.97;;;1.73;;
15878;SDS011;61999;51.514;14.614;2022-07-29T05:43:31;2.30;;;2.00;;
15878;SDS011;61999;51.514;14.614;2022-07-29T05:46:00;1.93;;;1.80;;
15878;SDS011;61999;51.514;14.614;2022-07-29T05:48:28;2.13;;;1.77;;
15878;SDS011;61999;51.514;14.614;2022-07-29T05:50:56;1.93;;;1.47;;
15878;SDS011;61999;51.514;14.614;2022-07-29T05:53:24;2.83;;;1.73;;
15878;SDS011;61999;51.514;14.614;2022-07-29T05:55:52;2.00;;;1.47;;
15878;SDS011;61999;51.514;14.614;2022-07-29T05:58:20;3.90;;;1.50;;
15878;SDS011;61999;51.514;14.614;2022-07-29T06:00:50;2.17;;;1.77;;
15878;SDS011;61999;51.514;14.614;2022-07-29T06:03:18;1.63;;;1.40;;
15878;SDS011;61999;51.514;14.614;2022-07-29T06:05:46;3.67;;;1.77;;
15878;SDS011;61999;51.514;14.614;2022-07-29T06:08:14;3.10;;;1.97;;
15878;SDS011;61999;51.514;14.614;2022-07-29T06:10:42;2.07;;;1.87;;
15878;SDS011;61999;51.514;14.614;2022-07-29T06:13:12;3.63;;;1.90;;
15878;SDS011;61999;51.514;14.614;2022-07-29T06:15:42;2.70;;;1.90;;
15878;SDS011;61999;51.514;14.614;2022-07-29T06:18:11;2.17;;;1.67;;
15878;SDS011;61999;51.514;14.614;2022-07-29T06:20:39;3.63;;;2.10;;
15878;SDS011;61999;51.514;14.614;2022-07-29T06:23:07;2.67;;;2.00;;
15878;SDS011;61999;51.514;14.614;2022-07-29T06:25:36;3.10;;;1.80;;
15878;SDS011;61999;51.514;14.614;2022-07-29T06:28:05;4.90;;;2.10;;
15878;SDS011;61999;51.514;14.614;2022-07-29T06:30:33;1.87;;;1.60;;
15878;SDS011;61999;51.514;14.614;2022-07-29T06:33:01;3.00;;;1.90;;
15878;SDS011;61999;51.514;14.614;2022-07-29T06:35:33;2.47;;;1.80;;
15878;SDS011;61999;51.514;14.614;2022-07-29T06:38:04;5.23;;;2.10;;
15878;SDS011;61999;51.514;14.614;2022-07-29T06:40:33;3.63;;;1.70;;
15878;SDS011;61999;51.514;14.614;2022-07-29T06:43:23;2.83;;;2.00;;
15878;SDS011;61999;51.514;14.614;2022-07-29T06:45:51;1.90;;;1.80;;
15878;SDS011;61999;51.514;14.614;2022-07-29T06:48:19;3.27;;;2.10;;
15878;SDS011;61999;51.514;14.614;2022-07-29T06:50:49;4.50;;;2.30;;
15878;SDS011;61999;51.514;14.614;2022-07-29T06:53:16;3.17;;;2.00;;
15878;SDS011;61999;51.514;14.614;2022-07-29T06:55:44;2.53;;;1.73;;
15878;SDS011;61999;51.514;14.614;2022-07-29T06:58:12;3.07;;;2.27;;
15878;SDS011;61999;51.514;14.614;2022-07-29T07:00:42;4.73;;;1.90;;
15878;SDS011;61999;51.514;14.614;2022-07-29T07:03:10;3.00;;;2.00;;
15878;SDS011;61999;51.514;14.614;2022-07-29T07:05:38;2.30;;;1.80;;
15878;SDS011;61999;51.514;14.614;2022-07-29T07:08:08;2.20;;;1.97;;
15878;SDS011;61999;51.514;14.614;2022-07-29T07:10:36;3.30;;;1.90;;
15878;SDS011;61999;51.514;14.614;2022-07-29T07:13:05;2.90;;;2.13;;
15878;SDS011;61999;51.514;14.614;2022-07-29T07:15:35;2.93;;;1.90;;
15878;SDS011;61999;51.514;14.614;2022-07-29T07:18:04;2.53;;;2.07;;
15878;SDS011;61999;51.514;14.614;2022-07-29T07:20:33;3.13;;;1.90;;
15878;SDS011;61999;51.514;14.614;2022-07-29T07:23:02;3.13;;;2.07;;
15878;SDS011;61999;51.514;14.614;2022-07-29T07:25:32;3.60;;;2.33;;
15878;SDS011;61999;51.514;14.614;2022-07-29T07:28:00;3.43;;;1.90;;
15878;SDS011;61999;51.514;14.614;2022-07-29T07:30:29;2.10;;;1.70;;
15878;SDS011;61999;51.514;14.614;2022-07-29T07:32:57;2.13;;;1.80;;
15878;SDS011;61999;51.514;14.614;2022-07-29T07:35:25;3.10;;;1.87;;
15878;SDS011;61999;51.514;14.614;2022-07-29T07:37:54;2.83;;;1.70;;
15878;SDS011;61999;51.514;14.614;2022-07-29T07:40:22;2.37;;;2.00;;
15878;SDS011;61999;51.514;14.614;2022-07-29T07:42:52;3.57;;;1.90;;
15878;SDS011;61999;51.514;14.614;2022-07-29T07:45:20;2.60;;;2.03;;
15878;SDS011;61999;51.514;14.614;2022-07-29T07:47:47;2.70;;;1.80;;
15878;SDS011;61999;51.514;14.614;2022-07-29T07:50:15;2.47;;;2.20;;
15878;SDS011;61999;51.514;14.614;2022-07-29T07:52:48;2.63;;;2.20;;
15878;SDS011;61999;51.514;14.614;2022-07-29T07:55:17;4.07;;;1.67;;
15878;SDS011;61999;51.514;14.614;2022-07-29T07:57:46;3.30;;;1.97;;
15878;SDS011;61999;51.514;14.614;2022-07-29T08:00:16;2.93;;;2.00;;
15878;SDS011;61999;51.514;14.614;2022-07-29T08:02:44;2.33;;;2.00;;
15878;SDS011;61999;51.514;14.614;2022-07-29T08:05:12;3.50;;;2.53;;
15878;SDS011;61999;51.514;14.614;2022-07-29T08:07:44;3.87;;;1.90;;
15878;SDS011;61999;51.514;14.614;2022-07-29T08:10:14;3.67;;;2.30;;
15878;SDS011;61999;51.514;14.614;2022-07-29T08:13:04;3.73;;;1.60;;
15878;SDS011;61999;51.514;14.614;2022-07-29T08:15:34;2.13;;;1.80;;
15878;SDS011;61999;51.514;14.614;2022-07-29T08:18:02;3.30;;;2.13;;
15878;SDS011;61999;51.514;14.614;2022-07-29T08:20:33;3.17;;;2.10;;
15878;SDS011;61999;51.514;14.614;2022-07-29T08:23:01;3.53;;;2.40;;
15878;SDS011;61999;51.514;14.614;2022-07-29T08:25:30;3.83;;;2.60;;
15878;SDS011;61999;51.514;14.614;2022-07-29T08:27:59;2.83;;;2.37;;
15878;SDS011;61999;51.514;14.614;2022-07-29T08:30:26;3.70;;;2.17;;
15878;SDS011;61999;51.514;14.614;2022-07-29T08:32:59;2.87;;;2.20;;
15878;SDS011;61999;51.514;14.614;2022-07-29T08:35:28;2.43;;;2.07;;
15878;SDS011;61999;51.514;14.614;2022-07-29T08:38:00;2.47;;;1.90;;
15878;SDS011;61999;51.514;14.614;2022-07-29T08:40:29;3.77;;;2.67;;
15878;SDS011;61999;51.514;14.614;2022-07-29T08:42:58;4.17;;;2.30;;
15878;SDS011;61999;51.514;14.614;2022-07-29T08:45:31;3.07;;;2.27;;
15878;SDS011;61999;51.514;14.614;2022-07-29T08:48:12;4.03;;;2.67;;
15878;SDS011;61999;51.514;14.614;2022-07-29T08:50:41;3.10;;;2.40;;
15878;SDS011;61999;51.514;14.614;2022-07-29T08:53:11;2.20;;;2.00;;
15878;SDS011;61999;51.514;14.614;2022-07-29T08:55:41;2.40;;;2.20;;
15878;SDS011;61999;51.514;14.614;2022-07-29T08:58:12;3.60;;;2.50;;
15878;SDS011;61999;51.514;14.614;2022-07-29T09:00:42;3.83;;;2.47;;
15878;SDS011;61999;51.514;14.614;2022-07-29T09:03:15;4.30;;;2.20;;
15878;SDS011;61999;51.514;14.614;2022-07-29T09:05:47;2.97;;;2.13;;
15878;SDS011;61999;51.514;14.614;2022-07-29T09:08:16;3.27;;;2.07;;
15878;SDS011;61999;51.514;14.614;2022-07-29T09:10:44;2.53;;;2.10;;
15878;SDS011;61999;51.514;14.614;2022-07-29T09:13:12;2.37;;;1.77;;
15878;SDS011;61999;51.514;14.614;2022-07-29T09:15:40;2.87;;;2.10;;
15878;SDS011;61999;51.514;14.614;2022-07-29T09:18:08;3.63;;;2.53;;
15878;SDS011;61999;51.514;14.614;2022-07-29T09:20:38;3.03;;;2.60;;
15878;SDS011;61999;51.514;14.614;2022-07-29T09:23:35;3.13;;;2.47;;
15878;SDS011;61999;51.514;14.614;2022-07-29T09:26:04;3.00;;;2.40;;
15878;SDS011;61999;51.514;14.614;2022-07-29T09:28:33;3.37;;;2.60;;
15878;SDS011;61999;51.514;14.614;2022-07-29T09:31:09;3.63;;;2.43;;
15878;SDS011;61999;51.514;14.614;2022-07-29T09:33:37;2.70;;;2.40;;
15878;SDS011;61999;51.514;14.614;2022-07-29T09:36:09;2.07;;;1.97;;
15878;SDS011;61999;51.514;14.614;2022-07-29T09:38:37;4.27;;;2.37;;
15878;SDS011;61999;51.514;14.614;2022-07-29T09:41:05;3.47;;;2.47;;
15878;SDS011;61999;51.514;14.614;2022-07-29T09:43:36;3.07;;;2.37;;
15878;SDS011;61999;51.514;14.614;2022-07-29T09:46:09;3.57;;;2.73;;
15878;SDS011;61999;51.514;14.614;2022-07-29T09:48:38;2.60;;;2.40;;
15878;SDS011;61999;51.514;14.614;2022-07-29T09:51:17;3.00;;;2.40;;
15878;SDS011;61999;51.514;14.614;2022-07-29T09:53:48;4.50;;;2.60;;
15878;SDS011;61999;51.514;14.614;2022-07-29T09:56:16;4.13;;;2.80;;
15878;SDS011;61999;51.514;14.614;2022-07-29T09:58:44;2.80;;;2.60;;
15878;SDS011;61999;51.514;14.614;2022-07-29T10:01:12;4.23;;;2.80;;
15878;SDS011;61999;51.514;14.614;2022-07-29T10:03:50;3.40;;;2.40;;
15878;SDS011;61999;51.514;14.614;2022-07-29T10:06:20;2.93;;;2.63;;
15878;SDS011;61999;51.514;14.614;2022-07-29T10:08:48;2.47;;;2.23;;
15878;SDS011;61999;51.514;14.614;2022-07-29T10:11:17;2.70;;;2.50;;
15878;SDS011;61999;51.514;14.614;2022-07-29T10:13:47;4.50;;;3.00;;
15878;SDS011;61999;51.514;14.614;2022-07-29T10:16:16;3.17;;;2.40;;
15878;SDS011;61999;51.514;14.614;2022-07-29T10:18:44;3.20;;;2.33;;
15878;SDS011;61999;51.514;14.614;2022-07-29T10:21:13;3.20;;;2.67;;
15878;SDS011;61999;51.514;14.614;2022-07-29T10:23:43;4.13;;;2.30;;
15878;SDS011;61999;51.514;14.614;2022-07-29T10:26:12;2.20;;;2.00;;
15878;SDS011;61999;51.514;14.614;2022-07-29T10:28:41;2.77;;;2.27;;
15878;SDS011;61999;51.514;14.614;2022-07-29T10:31:19;4.23;;;2.50;;
15878;SDS011;61999;51.514;14.614;2022-07-29T10:33:59;4.40;;;2.23;;
15878;SDS011;61999;51.514;14.614;2022-07-29T10:36:40;2.50;;;2.30;;
15878;SDS011;61999;51.514;14.614;2022-07-29T10:39:27;2.40;;;2.20;;
15878;SDS011;61999;51.514;14.614;2022-07-29T10:42:15;2.70;;;2.47;;
15878;SDS011;61999;51.514;14.614;2022-07-29T10:44:47;2.60;;;2.40;;
15878;SDS011;61999;51.514;14.614;2022-07-29T10:47:20;3.27;;;2.77;;
15878;SDS011;61999;51.514;14.614;2022-07-29T10:49:56;2.72;;;2.53;;
15878;SDS011;61999;51.514;14.614;2022-07-29T10:55:31;2.45;;;2.30;;
15878;SDS011;61999;51.514;14.614;2022-07-29T10:58:12;2.58;;;2.38;;
15878;SDS011;61999;51.514;14.614;2022-07-29T11:00:42;3.33;;;2.40;;
15878;SDS011;61999;51.514;14.614;2022-07-29T11:06:13;2.08;;;1.88;;
15878;SDS011;61999;51.514;14.614;2022-07-29T11:08:41;2.95;;;2.35;;
15878;SDS011;61999;51.514;14.614;2022-07-29T11:14:07;3.55;;;2.67;;
15878;SDS011;61999;51.514;14.614;2022-07-29T11:19:29;2.70;;;2.50;;
15878;SDS011;61999;51.514;14.614;2022-07-29T11:21:57;2.83;;;2.60;;
15878;SDS011;61999;51.514;14.614;2022-07-29T11:24:27;3.33;;;2.50;;
15878;SDS011;61999;51.514;14.614;2022-07-29T11:27:09;2.50;;;2.30;;
15878;SDS011;61999;51.514;14.614;2022-07-29T11:29:47;3.15;;;2.40;;
15878;SDS011;61999;51.514;14.614;2022-07-29T11:32:22;3.50;;;3.20;;
15878;SDS011;61999;51.514;14.614;2022-07-29T11:35:12;2.17;;;2.08;;
15878;SDS011;61999;51.514;14.614;2022-07-29T11:37:44;3.28;;;2.58;;
15878;SDS011;61999;51.514;14.614;2022-07-29T11:40:14;2.75;;;2.55;;
15878;SDS011;61999;51.514;14.614;2022-07-29T11:42:46;2.17;;;1.98;;
15878;SDS011;61999;51.514;14.614;2022-07-29T11:45:22;5.78;;;2.70;;
15878;SDS011;61999;51.514;14.614;2022-07-29T11:47:58;2.60;;;2.40;;
15878;SDS011;61999;51.514;14.614;2022-07-29T11:50:35;3.83;;;2.28;;
15878;SDS011;61999;51.514;14.614;2022-07-29T11:53:10;3.08;;;2.30;;
15878;SDS011;61999;51.514;14.614;2022-07-29T11:55:40;2.42;;;2.05;;
15878;SDS011;61999;51.514;14.614;2022-07-29T11:58:10;2.10;;;1.90;;
15878;SDS011;61999;51.514;14.614;2022-07-29T12:00:39;2.72;;;2.20;;
15878;SDS011;61999;51.514;14.614;2022-07-29T12:03:09;3.00;;;2.38;;
15878;SDS011;61999;51.514;14.614;2022-07-29T12:05:39;3.08;;;2.38;;
15878;SDS011;61999;51.514;14.614;2022-07-29T12:08:11;2.53;;;2.17;;
15878;SDS011;61999;51.514;14.614;2022-07-29T12:10:42;1.80;;;1.70;;
15878;SDS011;61999;51.514;14.614;2022-07-29T12:13:13;2.67;;;2.47;;
15878;SDS011;61999;51.514;14.614;2022-07-29T12:15:51;2.47;;;2.20;;
15878;SDS011;61999;51.514;14.614;2022-07-29T12:18:20;3.05;;;2.40;;
15878;SDS011;61999;51.514;14.614;2022-07-29T12:20:49;2.92;;;2.35;;
15878;SDS011;61999;51.514;14.614;2022-07-29T12:23:24;2.03;;;1.92;;
15878;SDS011;61999;51.514;14.614;2022-07-29T12:25:52;4.10;;;2.28;;
15878;SDS011;61999;51.514;14.614;2022-07-29T12:28:22;2.40;;;2.20;;
15878;SDS011;61999;51.514;14.614;2022-07-29T12:30:50;1.88;;;1.77;;
15878;SDS011;61999;51.514;14.614;2022-07-29T12:33:19;2.30;;;2.20;;
15878;SDS011;61999;51.514;14.614;2022-07-29T12:35:50;2.00;;;1.90;;
15878;SDS011;61999;51.514;14.614;2022-07-29T12:38:31;2.72;;;2.50;;
15878;SDS011;61999;51.514;14.614;2022-07-29T12:41:00;2.50;;;2.33;;
15878;SDS011;61999;51.514;14.614;2022-07-29T12:43:32;3.15;;;2.67;;
15878;SDS011;61999;51.514;14.614;2022-07-29T12:46:11;3.00;;;2.70;;
15878;SDS011;61999;51.514;14.614;2022-07-29T12:48:42;3.15;;;2.90;;
15878;SDS011;61999;51.514;14.614;2022-07-29T12:51:10;2.72;;;2.53;;
15878;SDS011;61999;51.514;14.614;2022-07-29T12:53:40;2.28;;;2.13;;
15878;SDS011;61999;51.514;14.614;2022-07-29T12:56:14;3.38;;;2.63;;
15878;SDS011;61999;51.514;14.614;2022-07-29T12:58:59;3.70;;;2.90;;
15878;SDS011;61999;51.514;14.614;2022-07-29T13:01:40;3.25;;;2.80;;
15878;SDS011;61999;51.514;14.614;2022-07-29T13:04:09;3.95;;;3.20;;
15878;SDS011;61999;51.514;14.614;2022-07-29T13:06:38;3.00;;;2.80;;
15878;SDS011;61999;51.514;14.614;2022-07-29T13:09:09;3.63;;;3.25;;
15878;SDS011;61999;51.514;14.614;2022-07-29T13:11:41;4.03;;;3.25;;
15878;SDS011;61999;51.514;14.614;2022-07-29T13:14:30;3.05;;;2.80;;
15878;SDS011;61999;51.514;14.614;2022-07-29T13:17:02;2.90;;;2.70;;
15878;SDS011;61999;51.514;14.614;2022-07-29T13:19:33;3.25;;;2.42;;
15878;SDS011;61999;51.514;14.614;2022-07-29T13:22:04;3.00;;;2.80;;
15878;SDS011;61999;51.514;14.614;2022-07-29T13:24:32;2.83;;;2.63;;
15878;SDS011;61999;51.514;14.614;2022-07-29T13:27:00;2.85;;;2.60;;
15878;SDS011;61999;51.514;14.614;2022-07-29T13:29:29;2.80;;;2.63;;
15878;SDS011;61999;51.514;14.614;2022-07-29T13:31:58;2.90;;;2.75;;
15878;SDS011;61999;51.514;14.614;2022-07-29T13:34:27;2.50;;;2.33;;
15878;SDS011;61999;51.514;14.614;2022-07-29T13:36:55;3.13;;;2.83;;
15878;SDS011;61999;51.514;14.614;2022-07-29T13:39:22;3.33;;;3.03;;
15878;SDS011;61999;51.514;14.614;2022-07-29T13:41:50;2.50;;;2.40;;
15878;SDS011;61999;51.514;14.614;2022-07-29T13:44:19;2.95;;;2.80;;
15878;SDS011;61999;51.514;14.614;2022-07-29T13:46:48;3.25;;;2.85;;
15878;SDS011;61999;51.514;14.614;2022-07-29T13:49:16;2.63;;;2.47;;
15878;SDS011;61999;51.514;14.614;2022-07-29T13:51:44;3.38;;;2.50;;
15878;SDS011;61999;51.514;14.614;2022-07-29T13:54:12;2.88;;;2.67;;
15878;SDS011;61999;51.514;14.614;2022-07-29T13:56:40;4.78;;;2.80;;
15878;SDS011;61999;51.514;14.614;2022-07-29T13:59:08;2.90;;;2.70;;
15878;SDS011;61999;51.514;14.614;2022-07-29T14:01:36;2.60;;;2.47;;
15878;SDS011;61999;51.514;14.614;2022-07-29T14:04:05;2.40;;;2.30;;
15878;SDS011;61999;51.514;14.614;2022-07-29T14:06:33;2.53;;;2.42;;
15878;SDS011;61999;51.514;14.614;2022-07-29T14:09:01;2.65;;;2.45;;
15878;SDS011;61999;51.514;14.614;2022-07-29T14:11:32;2.47;;;2.33;;
15878;SDS011;61999;51.514;14.614;2022-07-29T14:14:00;2.35;;;2.17;;
15878;SDS011;61999;51.514;14.614;2022-07-29T14:16:28;2.20;;;2.10;;
15878;SDS011;61999;51.514;14.614;2022-07-29T14:18:56;2.55;;;2.35;;
15878;SDS011;61999;51.514;14.614;2022-07-29T14:21:25;2.63;;;2.42;;
15878;SDS011;61999;51.514;14.614;2022-07-29T14:23:53;1.85;;;1.70;;
15878;SDS011;61999;51.514;14.614;2022-07-29T14:26:22;3.90;;;2.47;;
15878;SDS011;61999;51.514;14.614;2022-07-29T14:28:50;3.45;;;2.33;;
15878;SDS011;61999;51.514;14.614;2022-07-29T14:31:18;2.40;;;2.20;;
15878;SDS011;61999;51.514;14.614;2022-07-29T14:33:46;2.10;;;2.00;;
15878;SDS011;61999;51.514;14.614;2022-07-29T14:36:14;2.33;;;2.20;;
15878;SDS011;61999;51.514;14.614;2022-07-29T14:38:43;2.22;;;2.03;;
15878;SDS011;61999;51.514;14.614;2022-07-29T14:41:11;2.28;;;2.08;;
15878;SDS011;61999;51.514;14.614;2022-07-29T14:43:39;2.85;;;2.60;;
15878;SDS011;61999;51.514;14.614;2022-07-29T14:46:07;2.80;;;2.60;;
15878;SDS011;61999;51.514;14.614;2022-07-29T14:48:35;2.70;;;2.30;;
15878;SDS011;61999;51.514;14.614;2022-07-29T14:51:03;2.28;;;2.08;;
15878;SDS011;61999;51.514;14.614;2022-07-29T14:53:37;4.15;;;2.35;;
15878;SDS011;61999;51.514;14.614;2022-07-29T14:56:12;7.30;;;6.57;;
15878;SDS011;61999;51.514;14.614;2022-07-29T14:59:00;7.47;;;6.77;;
15878;SDS011;61999;51.514;14.614;2022-07-29T15:01:28;7.90;;;7.20;;
15878;SDS011;61999;51.514;14.614;2022-07-29T15:03:56;8.80;;;8.00;;
15878;SDS011;61999;51.514;14.614;2022-07-29T15:06:25;9.87;;;8.90;;
15878;SDS011;61999;51.514;14.614;2022-07-29T15:08:53;9.83;;;8.87;;
15878;SDS011;61999;51.514;14.614;2022-07-29T15:11:22;9.97;;;8.97;;
15878;SDS011;61999;51.514;14.614;2022-07-29T15:13:50;8.27;;;7.03;;
15878;SDS011;61999;51.514;14.614;2022-07-29T15:16:18;7.83;;;7.00;;
15878;SDS011;61999;51.514;14.614;2022-07-29T15:18:46;8.03;;;7.23;;
15878;SDS011;61999;51.514;14.614;2022-07-29T15:21:13;7.80;;;7.00;;
15878;SDS011;61999;51.514;14.614;2022-07-29T15:23:42;6.67;;;6.07;;
15878;SDS011;61999;51.514;14.614;2022-07-29T15:26:10;5.40;;;5.00;;
15878;SDS011;61999;51.514;14.614;2022-07-29T15:28:39;5.27;;;4.77;;
15878;SDS011;61999;51.514;14.614;2022-07-29T15:31:07;4.60;;;4.20;;
15878;SDS011;61999;51.514;14.614;2022-07-29T15:33:36;5.13;;;4.68;;
15878;SDS011;61999;51.514;14.614;2022-07-29T15:36:04;4.40;;;4.00;;
15878;SDS011;61999;51.514;14.614;2022-07-29T15:38:33;3.73;;;3.43;;
15878;SDS011;61999;51.514;14.614;2022-07-29T15:41:00;3.60;;;3.30;;
15878;SDS011;61999;51.514;14.614;2022-07-29T15:43:28;3.43;;;3.13;;
15878;SDS011;61999;51.514;14.614;2022-07-29T15:45:58;3.10;;;2.90;;
15878;SDS011;61999;51.514;14.614;2022-07-29T15:48:44;3.13;;;2.83;;
15878;SDS011;61999;51.514;14.614;2022-07-29T15:51:12;3.60;;;3.30;;
15878;SDS011;61999;51.514;14.614;2022-07-29T15:53:40;3.23;;;2.93;;
15878;SDS011;61999;51.514;14.614;2022-07-29T15:56:08;2.50;;;2.30;;
15878;SDS011;61999;51.514;14.614;2022-07-29T15:58:36;2.70;;;2.50;;
15878;SDS011;61999;51.514;14.614;2022-07-29T16:01:05;2.47;;;2.30;;
15878;SDS011;61999;51.514;14.614;2022-07-29T16:03:33;2.30;;;2.20;;
15878;SDS011;61999;51.514;14.614;2022-07-29T16:06:01;2.47;;;2.30;;
15878;SDS011;61999;51.514;14.614;2022-07-29T16:08:30;2.30;;;2.15;;
15878;SDS011;61999;51.514;14.614;2022-07-29T16:10:58;2.20;;;2.00;;
15878;SDS011;61999;51.514;14.614;2022-07-29T16:13:26;2.22;;;2.03;;
15878;SDS011;61999;51.514;14.614;2022-07-29T16:15:54;3.43;;;2.13;;
15878;SDS011;61999;51.514;14.614;2022-07-29T16:18:24;2.70;;;2.50;;
15878;SDS011;61999;51.514;14.614;2022-07-29T16:20:52;2.47;;;2.27;;
15878;SDS011;61999;51.514;14.614;2022-07-29T16:23:20;2.40;;;2.20;;
15878;SDS011;61999;51.514;14.614;2022-07-29T16:25:49;2.00;;;1.90;;
15878;SDS011;61999;51.514;14.614;2022-07-29T16:28:26;2.63;;;2.20;;
15878;SDS011;61999;51.514;14.614;2022-07-29T16:30:54;4.23;;;2.20;;
15878;SDS011;61999;51.514;14.614;2022-07-29T16:33:23;2.23;;;1.93;;
15878;SDS011;61999;51.514;14.614;2022-07-29T16:35:52;2.40;;;2.20;;
15878;SDS011;61999;51.514;14.614;2022-07-29T16:38:20;2.00;;;1.90;;
15878;SDS011;61999;51.514;14.614;2022-07-29T16:40:48;2.40;;;2.10;;
15878;SDS011;61999;51.514;14.614;2022-07-29T16:43:16;2.30;;;1.73;;
15878;SDS011;61999;51.514;14.614;2022-07-29T16:45:44;3.50;;;2.10;;
15878;SDS011;61999;51.514;14.614;2022-07-29T16:48:13;1.90;;;1.80;;
15878;SDS011;61999;51.514;14.614;2022-07-29T16:50:44;3.20;;;2.43;;
15878;SDS011;61999;51.514;14.614;2022-07-29T16:53:12;2.30;;;2.20;;
15878;SDS011;61999;51.514;14.614;2022-07-29T16:55:40;2.27;;;2.00;;
15878;SDS011;61999;51.514;14.614;2022-07-29T16:58:08;2.10;;;2.00;;
15878;SDS011;61999;51.514;14.614;2022-07-29T17:00:38;4.17;;;2.27;;
15878;SDS011;61999;51.514;14.614;2022-07-29T17:03:06;2.53;;;2.30;;
15878;SDS011;61999;51.514;14.614;2022-07-29T17:05:34;2.40;;;2.20;;
15878;SDS011;61999;51.514;14.614;2022-07-29T17:08:04;2.50;;;2.30;;
15878;SDS011;61999;51.514;14.614;2022-07-29T17:10:32;2.30;;;2.10;;
15878;SDS011;61999;51.514;14.614;2022-07-29T17:13:00;4.40;;;2.30;;
15878;SDS011;61999;51.514;14.614;2022-07-29T17:15:28;2.53;;;2.33;;
15878;SDS011;61999;51.514;14.614;2022-07-29T17:17:56;3.37;;;2.60;;
15878;SDS011;61999;51.514;14.614;2022-07-29T17:20:25;2.50;;;2.30;;
15878;SDS011;61999;51.514;14.614;2022-07-29T17:22:54;3.10;;;2.20;;
15878;SDS011;61999;51.514;14.614;2022-07-29T17:25:23;3.47;;;2.37;;
15878;SDS011;61999;51.514;14.614;2022-07-29T17:27:51;2.13;;;2.00;;
15878;SDS011;61999;51.514;14.614;2022-07-29T17:30:24;2.13;;;2.03;;
15878;SDS011;61999;51.514;14.614;2022-07-29T17:32:52;2.87;;;2.20;;
15878;SDS011;61999;51.514;14.614;2022-07-29T17:35:20;4.37;;;2.67;;
15878;SDS011;61999;51.514;14.614;2022-07-29T17:38:06;2.87;;;2.40;;
15878;SDS011;61999;51.514;14.614;2022-07-29T17:40:35;3.10;;;2.20;;
15878;SDS011;61999;51.514;14.614;2022-07-29T17:43:03;3.00;;;2.27;;
15878;SDS011;61999;51.514;14.614;2022-07-29T17:45:34;4.73;;;2.70;;
15878;SDS011;61999;51.514;14.614;2022-07-29T17:48:02;2.30;;;2.20;;
15878;SDS011;61999;51.514;14.614;2022-07-29T17:50:30;2.50;;;2.30;;
15878;SDS011;61999;51.514;14.614;2022-07-29T17:52:59;2.43;;;2.23;;
15878;SDS011;61999;51.514;14.614;2022-07-29T17:55:27;2.80;;;2.60;;
15878;SDS011;61999;51.514;14.614;2022-07-29T17:57:56;2.47;;;2.27;;
15878;SDS011;61999;51.514;14.614;2022-07-29T18:00:25;3.23;;;2.40;;
15878;SDS011;61999;51.514;14.614;2022-07-29T18:02:53;2.07;;;1.97;;
15878;SDS011;61999;51.514;14.614;2022-07-29T18:05:21;2.40;;;2.20;;
15878;SDS011;61999;51.514;14.614;2022-07-29T18:07:49;2.90;;;2.20;;
15878;SDS011;61999;51.514;14.614;2022-07-29T18:10:17;2.43;;;2.10;;
15878;SDS011;61999;51.514;14.614;2022-07-29T18:12:45;2.40;;;2.20;;
15878;SDS011;61999;51.514;14.614;2022-07-29T18:15:14;3.73;;;2.57;;
15878;SDS011;61999;51.514;14.614;2022-07-29T18:17:42;3.03;;;2.77;;
15878;SDS011;61999;51.514;14.614;2022-07-29T18:20:10;4.73;;;3.03;;
15878;SDS011;61999;51.514;14.614;2022-07-29T18:22:39;2.93;;;2.60;;
15878;SDS011;61999;51.514;14.614;2022-07-29T18:25:07;3.13;;;2.90;;
15878;SDS011;61999;51.514;14.614;2022-07-29T18:27:37;4.20;;;2.83;;
15878;SDS011;61999;51.514;14.614;2022-07-29T18:30:05;3.53;;;2.97;;
15878;SDS011;61999;51.514;14.614;2022-07-29T18:32:36;6.27;;;3.60;;
15878;SDS011;61999;51.514;14.614;2022-07-29T18:35:04;6.77;;;6.07;;
15878;SDS011;61999;51.514;14.614;2022-07-29T18:37:32;7.73;;;6.37;;
15878;SDS011;61999;51.514;14.614;2022-07-29T18:40:02;7.53;;;6.63;;
15878;SDS011;61999;51.514;14.614;2022-07-29T18:42:33;6.27;;;5.40;;
15878;SDS011;61999;51.514;14.614;2022-07-29T18:45:01;5.23;;;4.60;;
15878;SDS011;61999;51.514;14.614;2022-07-29T18:47:29;6.27;;;4.57;;
15878;SDS011;61999;51.514;14.614;2022-07-29T18:49:58;4.80;;;4.37;;
15878;SDS011;61999;51.514;14.614;2022-07-29T18:52:27;6.80;;;4.30;;
15878;SDS011;61999;51.514;14.614;2022-07-29T18:54:55;5.77;;;4.00;;
15878;SDS011;61999;51.514;14.614;2022-07-29T18:57:23;4.13;;;3.67;;
15878;SDS011;61999;51.514;14.614;2022-07-29T18:59:51;3.93;;;3.63;;
15878;SDS011;61999;51.514;14.614;2022-07-29T19:02:19;4.63;;;3.50;;
15878;SDS011;61999;51.514;14.614;2022-07-29T19:04:48;3.17;;;2.87;;
15878;SDS011;61999;51.514;14.614;2022-07-29T19:07:20;3.67;;;3.37;;
15878;SDS011;61999;51.514;14.614;2022-07-29T19:09:50;3.10;;;2.87;;
15878;SDS011;61999;51.514;14.614;2022-07-29T19:12:18;3.43;;;3.13;;
15878;SDS011;61999;51.514;14.614;2022-07-29T19:14:46;3.50;;;3.20;;
15878;SDS011;61999;51.514;14.614;2022-07-29T19:17:14;3.23;;;3.03;;
15878;SDS011;61999;51.514;14.614;2022-07-29T19:19:42;3.23;;;2.93;;
15878;SDS011;61999;51.514;14.614;2022-07-29T19:22:10;2.90;;;2.70;;
15878;SDS011;61999;51.514;14.614;2022-07-29T19:24:40;3.73;;;3.33;;
15878;SDS011;61999;51.514;14.614;2022-07-29T19:27:08;5.80;;;4.43;;
15878;SDS011;61999;51.514;14.614;2022-07-29T19:29:36;11.23;;;6.60;;
15878;SDS011;61999;51.514;14.614;2022-07-29T19:32:04;15.40;;;7.77;;
15878;SDS011;61999;51.514;14.614;2022-07-29T19:34:33;15.40;;;8.53;;
15878;SDS011;61999;51.514;14.614;2022-07-29T19:37:01;11.37;;;5.77;;
15878;SDS011;61999;51.514;14.614;2022-07-29T19:39:29;12.87;;;6.77;;
15878;SDS011;61999;51.514;14.614;2022-07-29T19:42:00;7.10;;;5.03;;
15878;SDS011;61999;51.514;14.614;2022-07-29T19:44:28;9.87;;;4.60;;
15878;SDS011;61999;51.514;14.614;2022-07-29T19:46:56;7.63;;;4.13;;
15878;SDS011;61999;51.514;14.614;2022-07-29T19:49:25;5.13;;;4.00;;
15878;SDS011;61999;51.514;14.614;2022-07-29T19:51:53;5.63;;;4.03;;
15878;SDS011;61999;51.514;14.614;2022-07-29T19:54:21;4.80;;;3.27;;
15878;SDS011;61999;51.514;14.614;2022-07-29T19:56:49;5.20;;;3.57;;
15878;SDS011;61999;51.514;14.614;2022-07-29T19:59:19;6.10;;;3.60;;
15878;SDS011;61999;51.514;14.614;2022-07-29T20:01:47;3.77;;;3.43;;
15878;SDS011;61999;51.514;14.614;2022-07-29T20:04:15;3.90;;;3.00;;
15878;SDS011;61999;51.514;14.614;2022-07-29T20:06:43;3.60;;;2.70;;
15878;SDS011;61999;51.514;14.614;2022-07-29T20:09:11;4.10;;;3.27;;
15878;SDS011;61999;51.514;14.614;2022-07-29T20:11:39;3.67;;;3.37;;
15878;SDS011;61999;51.514;14.614;2022-07-29T20:14:07;3.53;;;3.23;;
15878;SDS011;61999;51.514;14.614;2022-07-29T20:16:36;2.90;;;2.60;;
15878;SDS011;61999;51.514;14.614;2022-07-29T20:19:04;5.40;;;3.50;;
15878;SDS011;61999;51.514;14.614;2022-07-29T20:21:32;3.17;;;2.60;;
15878;SDS011;61999;51.514;14.614;2022-07-29T20:24:01;3.37;;;2.83;;
15878;SDS011;61999;51.514;14.614;2022-07-29T20:26:29;4.73;;;2.87;;